Time;durP1;ratioP1;P1;durP2;ratioP2;P2;SDS_P1;SDS_P2;PMS_P1;PMS_P2;Temp;Humidity;BMP_temperature;BMP_pressure;BME280_temperature;BME280_humidity;BME280_pressure;Samples;Min_cycle;Max_cycle;Signal;HPM_P1;HPM_P2
2021/04/22 00:01:18;;;;;;;2.08;1.70;;;23.10;29.80;;;;;;5020934;28;20202;-59
2021/04/22 00:03:44;;;;;;;1.83;1.73;;;23.00;29.80;;;;;;5047925;28;20573;-59
2021/04/22 00:06:10;;;;;;;1.90;1.80;;;23.00;29.80;;;;;;5011291;28;20202;-59
2021/04/22 00:08:36;;;;;;;1.70;1.60;;;23.00;29.90;;;;;;5047793;28;20220;-58
2021/04/22 00:11:02;;;;;;;3.05;2.15;;;23.00;29.90;;;;;;5017954;28;20221;-59
2021/04/22 00:13:28;;;;;;;2.70;2.10;;;23.00;29.90;;;;;;5027646;28;20247;-59
2021/04/22 00:15:54;;;;;;;2.77;1.93;;;23.00;29.90;;;;;;5045051;28;20788;-58
2021/04/22 00:18:20;;;;;;;2.10;2.00;;;23.00;30.00;;;;;;5022909;28;20686;-59
2021/04/22 00:20:46;;;;;;;2.00;1.90;;;23.00;30.00;;;;;;5021889;28;20242;-59
2021/04/22 00:23:12;;;;;;;1.93;1.83;;;23.00;30.00;;;;;;5011628;28;20586;-59
2021/04/22 00:25:38;;;;;;;2.03;1.83;;;23.00;30.00;;;;;;5031082;28;20213;-59
2021/04/22 00:28:04;;;;;;;2.20;2.10;;;23.00;30.00;;;;;;5010526;28;20206;-59
2021/04/22 00:30:30;;;;;;;2.33;2.10;;;23.00;30.00;;;;;;5028735;28;20229;-58
2021/04/22 00:32:56;;;;;;;2.33;1.80;;;23.00;30.30;;;;;;5026981;28;20208;-60
2021/04/22 00:35:22;;;;;;;1.90;1.80;;;23.00;30.00;;;;;;5026028;28;20546;-60
2021/04/22 00:37:48;;;;;;;1.83;1.73;;;23.00;30.00;;;;;;5028425;28;20223;-59
2021/04/22 00:40:14;;;;;;;1.98;1.83;;;23.00;30.10;;;;;;5025583;28;20247;-58
2021/04/22 00:42:40;;;;;;;2.10;1.90;;;23.00;30.10;;;;;;5017951;28;20711;-60
2021/04/22 00:45:06;;;;;;;2.03;1.83;;;23.00;30.20;;;;;;5024075;28;20210;-59
2021/04/22 00:47:32;;;;;;;2.05;1.95;;;23.00;30.20;;;;;;5026791;28;20219;-58
2021/04/22 00:49:58;;;;;;;1.93;1.83;;;23.00;30.20;;;;;;5024207;28;20665;-59
2021/04/22 00:52:24;;;;;;;1.93;1.83;;;23.00;30.10;;;;;;5024666;28;20325;-60
2021/04/22 00:54:49;;;;;;;2.13;1.95;;;23.00;30.10;;;;;;5031137;28;20309;-60
2021/04/22 00:57:15;;;;;;;1.90;1.80;;;23.00;30.20;;;;;;5027958;28;20377;-59
2021/04/22 00:59:41;;;;;;;2.17;1.97;;;23.00;30.20;;;;;;5010959;28;20226;-60
2021/04/22 01:02:07;;;;;;;2.10;2.00;;;23.00;30.30;;;;;;5030326;28;20622;-59
2021/04/22 01:04:33;;;;;;;2.10;1.90;;;23.00;30.40;;;;;;5027137;28;20305;-59
2021/04/22 01:06:59;;;;;;;2.37;2.00;;;23.00;30.20;;;;;;5047257;28;20267;-59
2021/04/22 01:09:25;;;;;;;2.13;2.03;;;23.00;30.40;;;;;;5044689;28;20233;-59
2021/04/22 01:11:51;;;;;;;2.33;2.13;;;23.00;30.40;;;;;;5032993;28;20207;-59
2021/04/22 01:14:17;;;;;;;1.80;1.70;;;23.00;30.30;;;;;;5017239;28;20566;-59
2021/04/22 01:16:43;;;;;;;2.20;2.00;;;23.00;30.30;;;;;;5033377;28;20203;-59
2021/04/22 01:19:09;;;;;;;2.63;1.90;;;23.00;30.40;;;;;;5030609;28;20218;-60
2021/04/22 01:21:35;;;;;;;2.10;2.00;;;23.00;30.30;;;;;;5042623;28;20210;-58
2021/04/22 01:24:01;;;;;;;2.00;1.90;;;23.00;30.60;;;;;;5028711;28;20646;-59
2021/04/22 01:26:27;;;;;;;2.30;2.10;;;22.90;30.30;;;;;;5027022;28;20202;-60
2021/04/22 01:28:53;;;;;;;2.00;1.80;;;23.00;30.60;;;;;;5026467;28;20662;-59
2021/04/22 01:31:19;;;;;;;2.27;2.17;;;23.00;30.40;;;;;;5026178;28;20205;-61
2021/04/22 01:33:45;;;;;;;2.40;2.20;;;23.00;30.50;;;;;;5033912;28;20550;-61
2021/04/22 01:36:11;;;;;;;2.03;1.93;;;23.00;30.40;;;;;;5014581;28;20246;-59
2021/04/22 01:38:37;;;;;;;2.42;2.22;;;22.90;31.00;;;;;;5036463;28;20233;-59
2021/04/22 01:41:03;;;;;;;3.20;2.30;;;23.00;30.60;;;;;;5022237;28;20206;-60
2021/04/22 01:43:29;;;;;;;2.30;2.10;;;23.00;31.20;;;;;;5028888;28;20206;-60
2021/04/22 01:45:55;;;;;;;2.27;2.07;;;22.90;30.40;;;;;;5014579;28;20206;-59
2021/04/22 01:48:21;;;;;;;2.20;2.10;;;23.00;30.60;;;;;;5030142;28;20249;-60
2021/04/22 01:50:47;;;;;;;2.20;2.10;;;23.00;30.60;;;;;;5027612;28;20251;-60
2021/04/22 01:53:13;;;;;;;2.40;2.30;;;23.00;30.60;;;;;;5027555;28;20225;-59
2021/04/22 01:55:39;;;;;;;2.43;2.00;;;23.00;30.60;;;;;;5030582;28;20198;-58
2021/04/22 01:58:05;;;;;;;2.60;2.10;;;23.00;30.60;;;;;;5027578;28;20223;-59
2021/04/22 02:00:31;;;;;;;2.50;1.90;;;22.90;30.60;;;;;;5020616;28;20683;-59
2021/04/22 02:02:57;;;;;;;2.23;2.03;;;22.90;30.50;;;;;;5016263;28;20217;-59
2021/04/22 02:05:23;;;;;;;2.33;2.22;;;22.90;30.60;;;;;;5013928;28;20209;-59
2021/04/22 02:07:49;;;;;;;2.35;2.15;;;22.90;30.60;;;;;;5039727;28;20597;-59
2021/04/22 02:10:15;;;;;;;1.97;1.87;;;22.90;30.60;;;;;;5037647;28;20222;-60
2021/04/22 02:12:41;;;;;;;2.00;1.90;;;22.90;30.60;;;;;;5026395;28;20205;-59
2021/04/22 02:15:07;;;;;;;1.93;1.83;;;22.90;30.60;;;;;;5026693;28;20688;-59
2021/04/22 02:17:33;;;;;;;2.00;1.90;;;22.90;30.50;;;;;;5032381;28;20230;-60
2021/04/22 02:19:58;;;;;;;2.23;2.07;;;22.90;31.20;;;;;;5022814;28;20226;-59
2021/04/22 02:22:24;;;;;;;1.90;1.80;;;22.90;30.50;;;;;;5030650;28;20196;-60
2021/04/22 02:24:50;;;;;;;2.07;1.97;;;22.90;30.60;;;;;;5019348;28;20213;-59
2021/04/22 02:27:16;;;;;;;2.30;2.10;;;22.90;30.60;;;;;;5047768;28;20220;-60
2021/04/22 02:29:42;;;;;;;2.30;2.10;;;22.90;30.60;;;;;;5015913;28;20219;-59
2021/04/22 02:32:08;;;;;;;2.28;1.70;;;22.90;30.60;;;;;;5021922;28;20650;-59
2021/04/22 02:34:35;;;;;;;1.90;1.80;;;22.90;30.60;;;;;;5013383;28;20211;-59
2021/04/22 02:37:01;;;;;;;2.57;1.97;;;22.90;30.60;;;;;;5031395;28;20212;-59
2021/04/22 02:39:27;;;;;;;1.90;1.80;;;22.90;30.60;;;;;;5020841;28;20217;-59
2021/04/22 02:41:53;;;;;;;2.27;1.70;;;22.90;30.60;;;;;;5047228;28;20198;-59
2021/04/22 02:44:19;;;;;;;1.97;1.87;;;22.90;30.70;;;;;;5037140;28;20681;-60
2021/04/22 02:46:44;;;;;;;2.10;2.00;;;22.90;30.70;;;;;;5042137;28;20213;-59
2021/04/22 02:49:10;;;;;;;1.65;1.55;;;22.90;30.70;;;;;;5025859;28;20230;-59
2021/04/22 02:51:36;;;;;;;2.17;1.97;;;22.90;30.70;;;;;;5014168;28;20202;-59
2021/04/22 02:54:02;;;;;;;1.90;1.80;;;22.90;30.70;;;;;;5013108;28;20194;-58
2021/04/22 02:56:28;;;;;;;1.80;1.70;;;22.90;30.60;;;;;;5034394;28;20271;-58
2021/04/22 02:58:54;;;;;;;1.90;1.80;;;22.90;30.70;;;;;;5013007;28;20234;-57
2021/04/22 03:01:20;;;;;;;2.10;1.90;;;22.90;30.80;;;;;;5016352;28;20778;-59
2021/04/22 03:03:46;;;;;;;1.97;1.87;;;22.90;30.90;;;;;;5033017;28;20213;-58
2021/04/22 03:06:12;;;;;;;2.10;2.00;;;22.90;30.80;;;;;;5040831;28;20209;-60
2021/04/22 03:08:38;;;;;;;2.50;2.30;;;22.90;30.80;;;;;;5030854;28;20705;-60
2021/04/22 03:11:04;;;;;;;2.77;2.07;;;22.90;30.70;;;;;;5024972;28;20204;-60
2021/04/22 03:13:30;;;;;;;3.33;1.90;;;22.90;31.10;;;;;;5021019;28;20207;-59
2021/04/22 03:15:56;;;;;;;2.70;2.00;;;22.90;31.30;;;;;;5024383;28;20747;-60
2021/04/22 03:18:22;;;;;;;2.13;1.93;;;22.90;31.30;;;;;;5034856;28;20241;-59
2021/04/22 03:20:48;;;;;;;2.20;1.93;;;22.90;31.30;;;;;;5022897;28;20685;-59
2021/04/22 03:23:14;;;;;;;2.10;2.00;;;22.90;31.40;;;;;;5013462;28;20205;-59
2021/04/22 03:25:40;;;;;;;1.60;1.50;;;22.80;31.40;;;;;;5024273;28;20201;-59
2021/04/22 03:28:06;;;;;;;2.37;1.80;;;22.80;31.40;;;;;;5045816;28;20567;-60
2021/04/22 03:30:32;;;;;;;2.17;1.97;;;22.80;31.50;;;;;;5017795;28;20198;-60
2021/04/22 03:32:58;;;;;;;1.80;1.70;;;22.80;31.40;;;;;;5026619;28;20202;-59
2021/04/22 03:35:24;;;;;;;2.80;1.80;;;22.80;31.40;;;;;;5012614;28;20199;-59
2021/04/22 03:37:50;;;;;;;4.37;1.90;;;22.80;31.40;;;;;;5011479;28;20230;-60
2021/04/22 03:40:16;;;;;;;2.33;1.80;;;22.80;31.40;;;;;;5027649;28;20210;-60
2021/04/22 03:42:42;;;;;;;2.23;1.70;;;22.80;31.60;;;;;;5035549;28;20201;-59
2021/04/22 03:45:08;;;;;;;1.70;1.60;;;22.80;31.60;;;;;;5013641;28;20549;-60
2021/04/22 03:47:34;;;;;;;2.10;1.90;;;22.80;31.80;;;;;;5011630;28;20275;-59
2021/04/22 03:50:00;;;;;;;2.20;2.00;;;22.80;31.60;;;;;;5029234;28;20225;-59
2021/04/22 03:52:26;;;;;;;3.43;2.13;;;22.80;31.60;;;;;;5028108;28;20205;-60
2021/04/22 03:54:52;;;;;;;3.60;1.90;;;22.80;31.80;;;;;;5040489;28;20568;-59
2021/04/22 03:57:18;;;;;;;2.73;1.90;;;22.80;31.70;;;;;;5039865;28;20236;-59
2021/04/22 03:59:44;;;;;;;2.20;2.00;;;22.80;31.70;;;;;;5033734;28;20221;-62
2021/04/22 04:02:10;;;;;;;2.00;1.90;;;22.80;31.80;;;;;;5031527;28;20212;-61
2021/04/22 04:04:36;;;;;;;2.70;1.97;;;22.80;31.90;;;;;;5028821;28;20600;-59
2021/04/22 04:07:02;;;;;;;3.40;1.93;;;22.80;31.80;;;;;;5030602;28;20206;-60
2021/04/22 04:09:28;;;;;;;2.37;1.90;;;22.80;32.00;;;;;;5016590;28;20241;-60
2021/04/22 04:11:54;;;;;;;3.63;2.10;;;22.80;31.80;;;;;;5011674;28;20213;-61
2021/04/22 04:14:20;;;;;;;3.30;1.80;;;22.80;31.80;;;;;;5024175;28;20208;-61
2021/04/22 04:16:45;;;;;;;1.70;1.60;;;22.80;31.80;;;;;;5017698;28;20542;-60
2021/04/22 04:19:11;;;;;;;2.87;1.67;;;22.80;31.70;;;;;;5014450;28;20245;-59
2021/04/22 04:21:37;;;;;;;2.17;1.67;;;22.80;31.60;;;;;;5022414;28;20621;-59
2021/04/22 04:24:03;;;;;;;1.90;1.73;;;22.80;31.60;;;;;;5025777;28;20206;-58
2021/04/22 04:26:29;;;;;;;1.90;1.77;;;22.80;31.50;;;;;;5014311;28;20210;-59
2021/04/22 04:28:55;;;;;;;2.53;1.67;;;22.80;31.30;;;;;;5022164;28;20284;-59
2021/04/22 04:31:21;;;;;;;1.65;1.50;;;22.90;31.30;;;;;;5023707;28;20201;-60
2021/04/22 04:33:49;;;;;;;2.92;1.67;;;22.90;31.10;;;;;;5025445;28;20655;-60
2021/04/22 04:36:15;;;;;;;1.98;1.77;;;22.90;31.00;;;;;;5019609;28;20209;-60
2021/04/22 04:38:41;;;;;;;2.45;1.55;;;22.90;30.90;;;;;;5037824;28;20241;-60
2021/04/22 04:41:07;;;;;;;1.70;1.60;;;22.90;30.80;;;;;;5032725;28;20191;-60
2021/04/22 04:43:33;;;;;;;2.08;1.67;;;22.90;30.70;;;;;;5024400;28;20206;-60
2021/04/22 04:45:59;;;;;;;1.90;1.77;;;22.90;30.60;;;;;;5034764;28;20251;-59
2021/04/22 04:48:25;;;;;;;2.03;1.90;;;23.00;30.70;;;;;;5047289;28;20228;-61
2021/04/22 04:50:51;;;;;;;1.97;1.57;;;23.00;30.70;;;;;;5016073;28;20230;-59
2021/04/22 04:53:17;;;;;;;2.13;1.60;;;23.00;30.60;;;;;;5023898;28;20240;-60
2021/04/22 04:55:43;;;;;;;1.70;1.60;;;22.90;30.50;;;;;;5025988;28;20350;-59
2021/04/22 04:58:09;;;;;;;1.53;1.40;;;23.00;30.70;;;;;;5041878;28;20689;-59
2021/04/22 05:00:35;;;;;;;1.73;1.50;;;23.00;30.60;;;;;;5022894;28;20221;-60
2021/04/22 05:03:01;;;;;;;2.20;1.70;;;23.00;30.60;;;;;;5029240;28;20209;-59
2021/04/22 05:05:27;;;;;;;1.80;1.60;;;23.00;30.70;;;;;;5037298;28;20255;-59
2021/04/22 05:07:53;;;;;;;1.87;1.60;;;23.00;30.70;;;;;;5034581;28;20255;-59
2021/04/22 05:10:19;;;;;;;1.55;1.45;;;23.00;30.70;;;;;;5050615;28;20209;-60
2021/04/22 05:12:45;;;;;;;1.90;1.60;;;23.00;30.70;;;;;;5039424;28;20202;-63
2021/04/22 05:15:11;;;;;;;1.70;1.60;;;23.00;30.70;;;;;;5025525;28;20266;-59
2021/04/22 05:17:37;;;;;;;2.27;1.67;;;23.00;30.70;;;;;;5043275;28;20218;-60
2021/04/22 05:20:03;;;;;;;2.58;1.55;;;23.00;30.80;;;;;;5020978;28;20700;-59
2021/04/22 05:22:29;;;;;;;1.83;1.63;;;23.00;30.70;;;;;;5015690;28;20196;-59
2021/04/22 05:24:55;;;;;;;2.50;1.63;;;23.00;30.70;;;;;;5017823;28;20685;-59
2021/04/22 05:27:21;;;;;;;1.93;1.43;;;23.00;31.00;;;;;;5048964;28;20208;-60
2021/04/22 05:29:47;;;;;;;2.67;1.70;;;23.00;31.00;;;;;;5028826;28;20205;-60
2021/04/22 05:32:13;;;;;;;2.27;1.90;;;23.00;30.80;;;;;;5023837;28;20258;-59
2021/04/22 05:34:39;;;;;;;1.70;1.60;;;23.00;30.90;;;;;;5020014;28;20215;-59
2021/04/22 05:37:05;;;;;;;2.00;1.70;;;23.00;31.30;;;;;;5049661;28;20216;-59
2021/04/22 05:39:31;;;;;;;4.43;2.00;;;23.00;31.50;;;;;;5031530;28;20595;-59
2021/04/22 05:41:58;;;;;;;1.53;1.43;;;23.00;31.80;;;;;;5028316;28;20210;-59
2021/04/22 05:44:24;;;;;;;1.98;1.70;;;23.00;31.80;;;;;;5022523;28;20203;-61
2021/04/22 05:46:50;;;;;;;2.40;1.80;;;23.00;31.50;;;;;;5046096;28;20244;-59
2021/04/22 05:49:16;;;;;;;2.60;1.53;;;23.00;31.80;;;;;;5032332;28;20222;-60
2021/04/22 05:51:42;;;;;;;2.40;1.77;;;23.00;32.00;;;;;;5031756;28;20517;-59
2021/04/22 05:54:08;;;;;;;2.40;1.87;;;23.00;32.30;;;;;;5015105;28;20703;-63
2021/04/22 05:56:34;;;;;;;9.60;2.40;;;23.00;32.30;;;;;;5033537;28;20699;-55
2021/04/22 05:59:00;;;;;;;6.30;2.50;;;23.00;32.30;;;;;;5026317;28;20233;-52
2021/04/22 06:01:26;;;;;;;9.13;2.10;;;23.10;32.40;;;;;;5037042;28;20211;-54
2021/04/22 06:03:52;;;;;;;4.23;2.23;;;23.10;32.40;;;;;;5043118;28;20213;-58
2021/04/22 06:06:18;;;;;;;3.60;2.07;;;23.20;33.50;;;;;;5036607;28;20287;-60
2021/04/22 06:08:44;;;;;;;4.50;2.10;;;23.10;32.80;;;;;;5034027;28;20232;-54
2021/04/22 06:11:10;;;;;;;5.35;2.13;;;23.10;32.40;;;;;;5019362;28;20573;-54
2021/04/22 06:13:36;;;;;;;4.57;2.80;;;23.10;34.90;;;;;;5030611;28;20203;-60
2021/04/22 06:16:02;;;;;;;3.17;2.20;;;23.10;34.70;;;;;;5021354;28;20206;-58
2021/04/22 06:18:28;;;;;;;6.07;2.10;;;23.10;33.60;;;;;;5014050;28;20241;-59
2021/04/22 06:20:54;;;;;;;5.37;2.60;;;23.10;33.80;;;;;;5017026;28;20260;-58
2021/04/22 06:23:20;;;;;;;5.28;3.17;;;23.00;34.10;;;;;;5026628;28;20577;-55
2021/04/22 06:25:46;;;;;;;8.82;2.65;;;23.00;34.20;;;;;;5013345;28;20326;-60
2021/04/22 06:28:12;;;;;;;6.97;2.10;;;23.00;34.20;;;;;;5020693;28;20745;-57
2021/04/22 06:30:38;;;;;;;11.00;8.83;;;23.00;34.70;;;;;;5024916;28;20206;-59
2021/04/22 06:33:04;;;;;;;11.37;7.23;;;20.90;29.80;;;;;;5031172;28;20207;-54
2021/04/22 06:35:30;;;;;;;9.97;5.63;;;21.30;34.50;;;;;;5028672;28;20289;-57
2021/04/22 06:37:56;;;;;;;7.17;4.53;;;22.00;36.60;;;;;;5039305;28;20647;-58
2021/04/22 06:40:22;;;;;;;7.57;4.50;;;22.30;34.30;;;;;;5020291;28;20265;-59
2021/04/22 06:42:48;;;;;;;7.33;4.10;;;22.40;35.40;;;;;;5012890;28;20260;-58
2021/04/22 06:45:14;;;;;;;7.53;4.27;;;22.50;35.00;;;;;;5024481;28;20214;-57
2021/04/22 06:47:40;;;;;;;6.73;3.90;;;22.70;35.80;;;;;;5029847;28;20276;-60
2021/04/22 06:50:06;;;;;;;7.40;3.53;;;22.70;34.70;;;;;;5025432;28;20561;-58
2021/04/22 06:52:32;;;;;;;4.63;3.43;;;22.80;34.90;;;;;;5037483;28;20225;-55
2021/04/22 06:54:57;;;;;;;9.60;3.23;;;22.80;34.40;;;;;;5033326;28;20203;-60
2021/04/22 06:57:23;;;;;;;7.17;3.40;;;22.90;36.10;;;;;;5025665;28;20237;-55
2021/04/22 06:59:49;;;;;;;7.13;3.37;;;22.90;37.60;;;;;;5023243;28;20203;-58
2021/04/22 07:02:15;;;;;;;9.00;3.30;;;22.90;35.40;;;;;;5020167;28;20266;-57
2021/04/22 07:04:41;;;;;;;4.20;2.57;;;22.90;35.90;;;;;;5040450;28;20220;-55
2021/04/22 07:07:07;;;;;;;9.03;3.30;;;23.00;36.00;;;;;;5018021;28;20605;-57
2021/04/22 07:09:35;;;;;;;6.17;3.17;;;23.00;36.50;;;;;;5019222;28;20206;-56
2021/04/22 07:12:01;;;;;;;6.63;2.97;;;23.10;36.40;;;;;;5015351;28;20202;-54
2021/04/22 07:14:27;;;;;;;4.57;2.80;;;23.00;37.20;;;;;;5020368;28;20207;-49
2021/04/22 07:16:53;;;;;;;5.27;3.47;;;23.00;35.70;;;;;;5030475;28;20558;-49
2021/04/22 07:19:19;;;;;;;5.75;2.97;;;23.00;34.70;;;;;;5042565;28;20226;-54
2021/04/22 07:21:45;;;;;;;7.10;3.17;;;23.00;34.50;;;;;;5043256;28;20668;-51
2021/04/22 07:24:11;;;;;;;5.57;3.53;;;23.10;37.30;;;;;;5034834;28;20297;-54
2021/04/22 07:26:37;;;;;;;6.80;3.07;;;23.10;35.80;;;;;;5033194;28;20293;-52
2021/04/22 07:29:03;;;;;;;6.30;2.70;;;23.10;36.30;;;;;;5015013;28;20215;-53
2021/04/22 07:31:29;;;;;;;4.60;3.13;;;23.10;35.70;;;;;;5027867;28;20267;-51
2021/04/22 07:33:55;;;;;;;4.88;2.90;;;23.10;37.30;;;;;;5020228;28;20210;-58
2021/04/22 07:36:21;;;;;;;4.68;2.83;;;23.10;37.30;;;;;;5018018;28;20234;-53
2021/04/22 07:38:47;;;;;;;5.82;5.20;;;23.10;36.90;;;;;;5023760;28;20322;-62
2021/04/22 07:41:13;;;;;;;14.17;5.23;;;23.00;35.70;;;;;;5021730;28;20563;-54
2021/04/22 07:43:39;;;;;;;5.65;3.92;;;23.00;35.50;;;;;;5029477;28;20202;-65
2021/04/22 07:46:05;;;;;;;6.27;3.67;;;23.00;36.10;;;;;;5026106;28;20222;-59
2021/04/22 07:48:31;;;;;;;5.20;3.00;;;23.00;34.60;;;;;;5020552;28;20722;-61
2021/04/22 07:50:57;;;;;;;5.40;3.07;;;23.10;36.80;;;;;;5025803;28;20208;-60
2021/04/22 07:53:23;;;;;;;6.57;2.80;;;23.10;36.60;;;;;;5023347;28;20333;-59
2021/04/22 07:55:50;;;;;;;4.57;2.60;;;23.10;35.80;;;;;;5025038;28;20199;-60
2021/04/22 07:58:16;;;;;;;6.53;2.67;;;23.10;35.50;;;;;;5020913;28;20233;-59
2021/04/22 08:00:42;;;;;;;4.57;2.63;;;23.10;35.20;;;;;;5044292;28;20194;-58
2021/04/22 08:03:08;;;;;;;4.13;2.70;;;23.10;35.00;;;;;;5038076;28;20614;-56
2021/04/22 08:05:36;;;;;;;3.70;2.43;;;23.10;34.20;;;;;;5036196;28;20201;-48
2021/04/22 08:08:02;;;;;;;4.87;3.20;;;23.20;34.80;;;;;;5037433;28;20753;-58
2021/04/22 08:10:28;;;;;;;4.83;2.90;;;23.20;36.00;;;;;;5017689;28;20206;-58
2021/04/22 08:12:54;;;;;;;5.13;2.77;;;23.20;35.60;;;;;;5014548;28;20245;-58
2021/04/22 08:15:20;;;;;;;3.67;2.92;;;23.10;34.40;;;;;;5022839;28;20217;-59
2021/04/22 08:17:46;;;;;;;5.23;2.77;;;23.10;34.00;;;;;;5019539;28;20702;-58
2021/04/22 08:20:12;;;;;;;7.70;3.40;;;23.10;35.50;;;;;;5022294;28;20240;-59
2021/04/22 08:22:38;;;;;;;4.93;2.70;;;23.10;34.70;;;;;;5035537;28;20217;-58
2021/04/22 08:25:04;;;;;;;4.88;2.70;;;23.20;35.10;;;;;;5028875;28;20195;-58
2021/04/22 08:27:30;;;;;;;4.25;2.60;;;23.20;35.30;;;;;;5013824;28;20223;-58
2021/04/22 08:29:56;;;;;;;7.80;3.25;;;23.20;35.40;;;;;;5024833;28;20289;-59
2021/04/22 08:32:22;;;;;;;5.00;2.92;;;23.20;36.90;;;;;;5029789;28;20220;-59
2021/04/22 08:34:48;;;;;;;10.05;3.72;;;23.20;36.30;;;;;;5037511;28;20206;-59
2021/04/22 08:37:14;;;;;;;7.63;4.57;;;23.20;34.70;;;;;;5029608;28;20230;-59
2021/04/22 08:39:40;;;;;;;6.40;4.40;;;23.10;33.10;;;;;;5029170;28;20589;-59
2021/04/22 08:42:06;;;;;;;4.33;3.67;;;23.10;33.40;;;;;;5021869;28;20292;-59
2021/04/22 08:44:32;;;;;;;3.33;2.73;;;23.10;32.90;;;;;;5025286;28;20207;-59
2021/04/22 08:46:58;;;;;;;3.45;3.05;;;23.20;33.30;;;;;;5042655;28;20248;-60
2021/04/22 08:49:24;;;;;;;6.33;3.10;;;23.20;33.70;;;;;;5034057;28;20197;-59
2021/04/22 08:51:50;;;;;;;4.18;2.65;;;23.20;33.90;;;;;;5036530;28;20289;-59
2021/04/22 08:54:16;;;;;;;4.20;2.83;;;23.20;34.00;;;;;;5028570;28;20862;-61
2021/04/22 08:56:42;;;;;;;5.70;2.75;;;23.20;33.60;;;;;;5020019;28;20230;-59
2021/04/22 08:59:08;;;;;;;4.72;2.92;;;23.20;34.40;;;;;;5019344;28;20230;-59
2021/04/22 09:01:34;;;;;;;6.50;2.70;;;23.20;34.10;;;;;;5013083;28;20213;-59
2021/04/22 09:04:01;;;;;;;4.57;2.67;;;23.20;34.80;;;;;;5023863;28;20198;-60
2021/04/22 09:06:27;;;;;;;7.78;3.25;;;23.20;34.60;;;;;;5020604;28;20304;-58
2021/04/22 09:08:53;;;;;;;4.38;3.17;;;23.30;34.60;;;;;;5018204;28;20647;-61
2021/04/22 09:11:19;;;;;;;4.15;3.25;;;23.20;33.50;;;;;;5030570;28;20338;-61
2021/04/22 09:13:45;;;;;;;4.22;2.85;;;23.20;33.60;;;;;;5030465;28;20208;-58
2021/04/22 09:16:11;;;;;;;6.00;2.90;;;23.30;33.40;;;;;;5033360;28;20209;-59
2021/04/22 09:18:37;;;;;;;4.45;3.03;;;23.30;33.60;;;;;;5010960;28;20612;-59
2021/04/22 09:21:03;;;;;;;3.55;2.40;;;23.20;33.30;;;;;;5019937;28;20682;-58
2021/04/22 09:23:29;;;;;;;3.47;2.83;;;23.30;32.90;;;;;;5034146;28;20206;-58
2021/04/22 09:25:55;;;;;;;4.47;2.70;;;23.30;32.60;;;;;;5036007;28;20213;-59
2021/04/22 09:28:21;;;;;;;3.33;2.70;;;23.30;32.60;;;;;;5016409;28;20262;-53
2021/04/22 09:30:47;;;;;;;3.35;2.78;;;23.30;32.60;;;;;;5032538;28;20658;-59
2021/04/22 09:33:13;;;;;;;4.93;2.45;;;23.30;32.90;;;;;;5028251;28;20217;-59
2021/04/22 09:35:39;;;;;;;4.35;2.75;;;23.30;32.60;;;;;;5024481;28;20282;-61
2021/04/22 09:38:05;;;;;;;3.70;2.53;;;23.30;32.60;;;;;;5043131;28;20716;-60
2021/04/22 09:40:31;;;;;;;4.65;2.60;;;23.30;32.80;;;;;;5031754;28;20203;-62
2021/04/22 09:42:57;;;;;;;4.70;2.50;;;23.30;32.60;;;;;;5027457;28;20677;-56
2021/04/22 09:45:23;;;;;;;4.20;2.75;;;23.40;32.60;;;;;;5023510;28;20207;-59
2021/04/22 09:47:49;;;;;;;4.70;2.60;;;23.30;32.60;;;;;;5032785;28;20700;-54
2021/04/22 09:50:15;;;;;;;3.10;2.60;;;23.30;32.60;;;;;;5032030;28;20217;-55
2021/04/22 09:52:41;;;;;;;4.07;2.80;;;23.40;32.60;;;;;;5048320;28;20212;-46
2021/04/22 09:55:07;;;;;;;5.45;2.97;;;23.40;32.70;;;;;;5026744;28;20341;-57
2021/04/22 09:57:34;;;;;;;3.72;2.63;;;23.40;32.60;;;;;;5018943;28;20226;-55
2021/04/22 10:00:00;;;;;;;3.33;2.58;;;23.40;33.10;;;;;;5031629;28;20230;-54
2021/04/22 10:02:26;;;;;;;4.20;2.72;;;23.40;33.10;;;;;;5032895;28;20213;-55
2021/04/22 10:04:52;;;;;;;4.10;2.53;;;23.40;33.50;;;;;;5032367;28;20209;-58
2021/04/22 10:07:18;;;;;;;3.85;2.22;;;23.40;33.40;;;;;;5027304;28;20226;-57
2021/04/22 10:09:44;;;;;;;4.07;2.40;;;23.40;33.20;;;;;;5042149;28;20263;-58
2021/04/22 10:12:11;;;;;;;4.00;2.42;;;23.40;33.50;;;;;;5051437;28;20702;-53
2021/04/22 10:14:36;;;;;;;5.55;2.78;;;23.40;33.30;;;;;;5016665;28;20254;-54
2021/04/22 10:17:02;;;;;;;4.22;2.80;;;23.40;33.60;;;;;;5031228;28;20223;-55
2021/04/22 10:19:28;;;;;;;4.53;2.72;;;23.40;33.10;;;;;;5028642;28;20767;-53
2021/04/22 10:21:54;;;;;;;3.80;2.10;;;23.40;33.00;;;;;;5030482;28;20198;-53
2021/04/22 10:24:20;;;;;;;2.78;2.35;;;23.40;32.70;;;;;;5038030;28;20654;-57
2021/04/22 10:26:46;;;;;;;4.05;3.13;;;23.40;32.90;;;;;;5021541;28;20231;-50
2021/04/22 10:29:12;;;;;;;3.67;2.65;;;23.40;32.90;;;;;;5020686;28;20648;-58
2021/04/22 10:31:38;;;;;;;3.85;2.72;;;23.40;33.70;;;;;;5029199;28;20207;-56
2021/04/22 10:34:04;;;;;;;5.32;2.67;;;23.40;33.10;;;;;;5030970;28;20283;-59
2021/04/22 10:36:31;;;;;;;3.15;2.35;;;23.40;33.10;;;;;;5025474;28;20225;-56
2021/04/22 10:38:57;;;;;;;3.50;2.35;;;23.40;33.70;;;;;;5028462;28;20229;-56
2021/04/22 10:41:23;;;;;;;3.75;2.38;;;23.40;33.80;;;;;;5035744;28;20202;-53
2021/04/22 10:43:49;;;;;;;2.93;2.40;;;23.40;34.20;;;;;;5040994;28;20198;-51
2021/04/22 10:46:17;;;;;;;3.33;2.43;;;23.40;33.40;;;;;;5033114;28;20303;-57
2021/04/22 10:48:43;;;;;;;4.32;2.67;;;23.40;34.10;;;;;;5017160;28;20285;-52
2021/04/22 10:51:09;;;;;;;3.50;2.13;;;23.40;33.90;;;;;;5025586;28;20207;-56
2021/04/22 10:53:35;;;;;;;2.83;2.28;;;23.40;33.70;;;;;;5018567;28;20203;-55
2021/04/22 10:56:01;;;;;;;3.15;2.40;;;23.40;33.60;;;;;;5031280;28;20230;-57
2021/04/22 10:58:27;;;;;;;3.38;2.35;;;23.40;33.40;;;;;;5043643;28;20287;-56
2021/04/22 11:00:53;;;;;;;4.53;2.78;;;23.40;34.20;;;;;;5032354;28;20202;-53
2021/04/22 11:03:19;;;;;;;7.90;3.25;;;23.40;33.60;;;;;;5037552;28;20643;-55
2021/04/22 11:05:45;;;;;;;8.82;3.78;;;23.40;32.80;;;;;;5027394;28;20206;-55
2021/04/22 11:08:12;;;;;;;3.78;3.05;;;23.40;34.50;;;;;;5024583;28;20276;-53
2021/04/22 11:10:38;;;;;;;5.78;3.45;;;23.40;34.20;;;;;;5022219;28;20199;-58
2021/04/22 11:13:04;;;;;;;4.82;2.72;;;23.40;35.40;;;;;;5028724;28;20213;-53
2021/04/22 11:15:30;;;;;;;4.57;2.80;;;23.40;35.30;;;;;;5014289;28;20207;-53
2021/04/22 11:17:56;;;;;;;4.32;3.20;;;23.40;35.20;;;;;;5023864;28;20680;-59
2021/04/22 11:20:22;;;;;;;6.43;3.00;;;23.40;35.50;;;;;;5023911;28;20257;-59
2021/04/22 11:22:50;;;;;;;4.75;2.72;;;23.40;35.70;;;;;;5022947;28;20203;-58
2021/04/22 11:25:16;;;;;;;6.25;2.75;;;23.40;35.90;;;;;;5017682;28;20236;-58
2021/04/22 11:27:42;;;;;;;3.55;2.72;;;23.40;35.70;;;;;;5030314;28;20225;-58
2021/04/22 11:30:08;;;;;;;3.78;2.97;;;23.40;35.60;;;;;;5045477;28;20224;-58
2021/04/22 11:32:34;;;;;;;4.05;3.10;;;23.40;35.50;;;;;;5017498;28;20573;-60
2021/04/22 11:34:59;;;;;;;3.70;2.88;;;23.40;35.50;;;;;;5033945;28;20213;-59
2021/04/22 11:37:25;;;;;;;3.75;2.67;;;23.40;35.60;;;;;;5023292;28;20241;-58
2021/04/22 11:39:51;;;;;;;6.30;3.20;;;23.40;35.40;;;;;;5015192;28;20209;-59
2021/04/22 11:42:17;;;;;;;6.20;3.38;;;23.40;36.30;;;;;;5028229;28;20203;-59
2021/04/22 11:44:43;;;;;;;4.40;3.13;;;23.40;35.70;;;;;;5026941;28;20213;-58
2021/04/22 11:47:09;;;;;;;4.30;3.25;;;23.40;35.50;;;;;;5027362;28;20233;-58
2021/04/22 11:49:35;;;;;;;4.47;2.60;;;23.40;35.60;;;;;;5035642;28;20514;-58
2021/04/22 11:52:01;;;;;;;5.55;3.10;;;23.40;35.70;;;;;;5024613;28;20201;-58
2021/04/22 11:54:27;;;;;;;3.63;3.25;;;23.40;35.90;;;;;;5024881;28;20238;-59
2021/04/22 11:56:53;;;;;;;4.50;2.78;;;23.40;35.70;;;;;;5025579;28;20585;-58
2021/04/22 11:59:21;;;;;;;4.47;3.35;;;23.40;35.60;;;;;;5022831;28;20229;-58
2021/04/22 12:01:47;;;;;;;3.45;2.78;;;23.40;35.30;;;;;;5024196;28;20918;-58
2021/04/22 12:04:13;;;;;;;5.93;3.08;;;23.40;35.20;;;;;;5021976;28;20313;-58
2021/04/22 12:06:39;;;;;;;3.55;3.00;;;23.40;35.10;;;;;;5032249;28;20845;-58
2021/04/22 12:09:04;;;;;;;3.83;3.08;;;23.40;35.10;;;;;;5031334;28;20203;-58
2021/04/22 12:11:30;;;;;;;4.47;2.90;;;23.40;35.20;;;;;;5026486;28;20226;-58
2021/04/22 12:13:56;;;;;;;3.20;2.75;;;23.40;35.00;;;;;;5027293;28;20564;-58
2021/04/22 12:16:24;;;;;;;3.33;2.92;;;23.40;34.90;;;;;;5026590;28;20225;-59
2021/04/22 12:18:51;;;;;;;4.72;2.70;;;23.40;34.90;;;;;;5045673;28;20230;-61
2021/04/22 12:21:17;;;;;;;3.60;2.75;;;23.30;35.10;;;;;;5024833;28;20245;-58
2021/04/22 12:23:43;;;;;;;5.55;2.90;;;23.40;36.20;;;;;;5024956;28;20203;-58
2021/04/22 12:26:09;;;;;;;3.00;2.70;;;23.40;35.80;;;;;;5021008;28;20810;-58
2021/04/22 12:28:35;;;;;;;3.38;2.55;;;23.30;35.40;;;;;;5023335;28;20201;-59
2021/04/22 12:31:01;;;;;;;6.03;2.85;;;23.40;35.20;;;;;;5024946;28;20240;-59
2021/04/22 12:33:27;;;;;;;3.00;2.70;;;23.30;35.30;;;;;;5028589;28;20209;-59
2021/04/22 12:35:52;;;;;;;3.97;2.58;;;23.30;35.20;;;;;;5023425;28;20574;-59
2021/04/22 12:38:20;;;;;;;2.95;2.60;;;23.40;35.00;;;;;;5026126;28;20358;-58